Time;durP1;ratioP1;P1;durP2;ratioP2;P2;SDS_P1;SDS_P2;PMS_P1;PMS_P2;Temp;Humidity;BMP_temperature;BMP_pressure;BME280_temperature;BME280_humidity;BME280_pressure;Samples;Min_cycle;Max_cycle;Signal;HPM_P1;HPM_P2
2022/04/10 00:02:13;;;;;;;4.82;1.20;;;;;;;26.41;28.50;96684.34;4898280;28;20363;-32
2022/04/10 00:04:39;;;;;;;2.80;1.10;;;;;;;26.41;28.58;96686.97;4899481;28;20615;-30
2022/04/10 00:07:04;;;;;;;4.18;1.10;;;;;;;26.39;28.66;96683.59;4899711;28;20121;-32
2022/04/10 00:09:30;;;;;;;1.80;0.90;;;;;;;26.41;28.58;96684.34;4897397;28;20042;-33
2022/04/10 00:11:55;;;;;;;5.80;1.25;;;;;;;26.42;28.60;96683.41;4899936;28;20038;-32
2022/04/10 00:14:20;;;;;;;2.33;0.88;;;;;;;26.41;28.68;96692.22;4896697;28;20063;-31
2022/04/10 00:16:46;;;;;;;3.10;1.00;;;;;;;26.41;28.66;96686.97;4898916;28;20040;-30
2022/04/10 00:19:11;;;;;;;2.17;0.82;;;;;;;26.42;28.52;96686.03;4897563;28;20885;-31
2022/04/10 00:21:37;;;;;;;3.47;1.10;;;;;;;26.41;28.49;96686.97;4900207;28;20031;-32
2022/04/10 00:24:02;;;;;;;2.58;1.00;;;;;;;26.41;28.61;96682.56;4901439;28;20042;-30
2022/04/10 00:26:28;;;;;;;6.20;1.30;;;;;;;26.42;28.54;96693.91;4901534;28;20047;-30
2022/04/10 00:28:53;;;;;;;3.67;0.90;;;;;;;26.41;28.69;96686.97;4899988;28;20035;-29
2022/04/10 00:31:19;;;;;;;1.55;0.98;;;;;;;26.41;28.61;96686.97;4901540;28;20035;-30
2022/04/10 00:33:44;;;;;;;4.40;1.08;;;;;;;26.37;28.59;96677.56;4900223;28;20115;-30
2022/04/10 00:36:10;;;;;;;1.75;0.80;;;;;;;26.41;28.55;96686.97;4901796;28;20489;-32
2022/04/10 00:38:35;;;;;;;1.33;0.80;;;;;;;26.39;28.57;96689.69;4903125;28;20368;-31
2022/04/10 00:41:01;;;;;;;3.05;0.80;;;;;;;26.40;28.79;96674.78;4900974;28;20035;-32
2022/04/10 00:43:32;;;;;;;2.97;0.80;;;;;;;26.39;28.66;96679.16;4901270;28;21687;-30
2022/04/10 00:45:58;;;;;;;1.90;0.80;;;;;;;26.40;28.61;96680.03;4902141;28;20034;-31
2022/04/10 00:48:23;;;;;;;3.60;0.95;;;;;;;26.39;28.69;96683.59;4903631;28;20117;-28
2022/04/10 00:53:33;;;;;;;2.38;1.05;;;;;;;26.39;28.59;96680.97;4904989;28;20043;-31
2022/04/10 00:55:58;;;;;;;2.53;0.80;;;;;;;26.39;28.70;96686.22;4928334;28;20035;-31
2022/04/10 00:58:24;;;;;;;2.33;0.82;;;;;;;26.40;28.51;96687.91;4929569;28;20047;-32
2022/04/10 01:00:49;;;;;;;2.85;0.90;;;;;;;26.39;28.55;96680.97;4925450;28;20035;-30
2022/04/10 01:03:15;;;;;;;2.13;1.20;;;;;;;26.38;28.70;96688.00;4921726;28;20028;-30
2022/04/10 01:05:41;;;;;;;2.83;0.93;;;;;;;26.38;28.65;96680.13;4928994;28;20043;-32
2022/04/10 01:08:07;;;;;;;2.47;1.02;;;;;;;26.37;28.64;96680.19;4927475;28;20036;-32
2022/04/10 01:10:32;;;;;;;3.25;1.10;;;;;;;26.38;28.59;96687.16;4944267;28;20051;-30
2022/04/10 01:12:57;;;;;;;1.20;0.80;;;;;;;26.38;28.63;96687.16;4931852;28;20027;-29
2022/04/10 01:15:23;;;;;;;3.55;1.00;;;;;;;26.37;28.71;96691.56;4930168;28;20062;-32
2022/04/10 01:17:48;;;;;;;4.50;1.08;;;;;;;26.38;28.55;96692.44;4943427;28;20802;-28
2022/04/10 01:20:14;;;;;;;4.05;0.90;;;;;;;26.37;28.63;96690.72;4928047;28;20028;-30
2022/04/10 01:22:40;;;;;;;3.35;0.93;;;;;;;26.37;28.51;96690.72;4942852;28;20035;-29
2022/04/10 01:25:06;;;;;;;2.85;1.00;;;;;;;26.37;28.50;96688.06;4939860;28;20031;-31
2022/04/10 01:27:38;;;;;;;2.70;0.70;;;;;;;26.37;28.60;96695.97;4932478;28;20031;-32
2022/04/10 01:30:04;;;;;;;3.40;0.73;;;;;;;26.36;28.57;96700.38;4932835;28;20031;-29
2022/04/10 01:32:30;;;;;;;2.33;0.90;;;;;;;26.35;28.67;96694.28;4932683;28;20043;-31
2022/04/10 01:34:57;;;;;;;3.30;1.10;;;;;;;26.37;28.69;96698.59;4932228;28;20028;-32
2022/04/10 01:37:22;;;;;;;2.17;0.80;;;;;;;26.37;28.61;96701.22;4948967;28;20576;-30
2022/04/10 01:39:47;;;;;;;0.77;0.60;;;;;;;26.35;28.64;96699.53;4931876;28;20031;-31
2022/04/10 01:42:13;;;;;;;1.15;0.60;;;;;;;26.35;28.65;96699.53;4932475;28;20031;-30
2022/04/10 01:44:42;;;;;;;0.85;0.70;;;;;;;26.34;28.56;96697.84;4935464;28;20043;-30
2022/04/10 01:47:07;;;;;;;1.65;0.70;;;;;;;26.35;28.52;96704.78;4932803;28;21066;-37
2022/04/10 01:49:33;;;;;;;1.85;0.90;;;;;;;26.35;28.64;96694.28;4925662;28;20599;-31
2022/04/10 01:51:58;;;;;;;2.05;0.75;;;;;;;26.35;28.53;96701.31;4925899;28;20043;-31
2022/04/10 01:54:23;;;;;;;2.42;0.80;;;;;;;26.35;28.59;96704.78;4932733;28;20032;-29
2022/04/10 01:56:49;;;;;;;4.47;0.90;;;;;;;26.37;28.63;96693.34;4933122;28;20591;-30
2022/04/10 01:59:14;;;;;;;2.08;0.90;;;;;;;26.35;28.70;96702.16;4933425;28;20050;-30
2022/04/10 02:01:39;;;;;;;4.47;1.15;;;;;;;26.35;28.70;96699.53;4929774;28;20114;-28
2022/04/10 02:04:05;;;;;;;2.60;0.80;;;;;;;26.35;28.56;96694.28;4929018;28;20031;-29
2022/04/10 02:06:30;;;;;;;5.85;0.98;;;;;;;26.36;28.45;96705.66;4928850;28;20038;-32
2022/04/10 02:08:56;;;;;;;6.22;0.70;;;;;;;26.34;28.65;96695.22;4925487;28;20035;-30
2022/04/10 02:11:21;;;;;;;2.10;0.82;;;;;;;26.34;28.61;96696.97;4929971;28;20271;-30
2022/04/10 02:13:47;;;;;;;2.17;0.70;;;;;;;26.34;28.57;96692.59;4933210;28;20059;-32
2022/04/10 02:16:14;;;;;;;1.65;0.77;;;;;;;26.33;28.47;96693.53;4933022;28;20540;-30
2022/04/10 02:18:39;;;;;;;2.28;0.75;;;;;;;26.33;28.66;96698.78;4934588;28;21129;-30
2022/04/10 02:21:05;;;;;;;5.10;1.00;;;;;;;26.32;28.74;96699.69;4931958;28;20094;-28
2022/04/10 02:23:31;;;;;;;3.70;0.80;;;;;;;26.33;28.55;96701.41;4929192;28;20039;-29
2022/04/10 02:25:56;;;;;;;2.40;1.00;;;;;;;26.34;28.71;96700.47;4934325;28;20027;-29
2022/04/10 02:28:21;;;;;;;3.95;0.60;;;;;;;26.34;28.57;96699.63;4931258;28;20753;-32
2022/04/10 02:30:47;;;;;;;4.07;0.70;;;;;;;26.33;28.57;96704.03;4930432;28;20050;-29
2022/04/10 02:33:12;;;;;;;1.85;0.70;;;;;;;26.31;28.64;96703.25;4933666;28;20483;-29
2022/04/10 02:35:40;;;;;;;1.58;0.68;;;;;;;26.31;28.52;96700.63;4932932;28;20039;-29
2022/04/10 02:38:05;;;;;;;2.75;0.57;;;;;;;26.32;28.79;96704.94;4930857;28;20039;-30
2022/04/10 02:40:31;;;;;;;1.77;0.52;;;;;;;26.32;28.63;96698.88;4935538;28;20024;-31
2022/04/10 02:42:56;;;;;;;2.78;0.60;;;;;;;26.32;28.54;96698.88;4932186;28;20497;-30
2022/04/10 02:45:22;;;;;;;2.90;0.95;;;;;;;26.30;28.59;96696.31;4932607;28;20035;-30
2022/04/10 02:47:47;;;;;;;2.85;0.70;;;;;;;26.32;28.70;96701.50;4932296;28;20113;-31
2022/04/10 02:50:13;;;;;;;3.47;0.82;;;;;;;26.31;28.61;96700.63;4932661;28;20023;-32
2022/04/10 02:52:42;;;;;;;1.45;0.63;;;;;;;26.30;28.76;96704.22;4933845;28;20027;-33
2022/04/10 02:55:08;;;;;;;1.95;0.52;;;;;;;26.30;28.54;96704.22;4928317;28;20441;-31
2022/04/10 02:57:34;;;;;;;1.20;0.50;;;;;;;26.29;28.63;96704.28;4932588;28;20132;-29
2022/04/10 02:59:59;;;;;;;1.73;0.70;;;;;;;26.30;28.66;96712.09;4949173;28;20033;-31
2022/04/10 03:02:25;;;;;;;1.80;0.80;;;;;;;26.30;28.68;96712.09;4945515;28;20386;-30
2022/04/10 03:04:50;;;;;;;2.80;0.50;;;;;;;26.30;28.66;96716.47;4932684;28;20047;-29
2022/04/10 03:07:16;;;;;;;1.55;0.60;;;;;;;26.29;28.56;96715.66;4932782;28;20047;-31
2022/04/10 03:09:41;;;;;;;1.70;0.45;;;;;;;26.29;28.60;96710.41;4934833;28;20035;-30
2022/04/10 03:12:08;;;;;;;1.77;0.70;;;;;;;26.29;28.50;96706.91;4934073;28;20035;-31
2022/04/10 03:14:34;;;;;;;1.10;0.60;;;;;;;26.30;28.65;96716.47;4929022;28;20083;-31
2022/04/10 03:16:59;;;;;;;2.45;0.50;;;;;;;26.29;28.63;96720.91;4932452;28;20043;-33
2022/04/10 03:19:25;;;;;;;1.52;0.40;;;;;;;26.28;28.66;96713.94;4933001;28;20030;-28
2022/04/10 03:21:50;;;;;;;2.33;0.85;;;;;;;26.28;28.67;96724.44;4924508;28;20039;-29
2022/04/10 03:24:15;;;;;;;0.85;0.55;;;;;;;26.29;28.73;96725.31;4932737;28;20542;-27
2022/04/10 03:26:41;;;;;;;2.15;0.65;;;;;;;26.28;28.64;96719.19;4930836;28;20038;-28
2022/04/10 03:29:06;;;;;;;1.15;0.50;;;;;;;26.28;28.69;96729.69;4929839;28;20626;-30
2022/04/10 03:31:32;;;;;;;1.98;0.57;;;;;;;26.28;28.58;96721.81;4932123;28;20035;-33
2022/04/10 03:33:57;;;;;;;4.78;0.90;;;;;;;26.28;28.65;96731.50;4930666;28;20584;-29
2022/04/10 03:36:22;;;;;;;1.92;0.70;;;;;;;26.27;28.67;96733.25;4928328;28;20031;-29
2022/04/10 03:38:48;;;;;;;1.45;0.55;;;;;;;26.28;28.69;96734.13;4934517;28;20069;-29
2022/04/10 03:41:13;;;;;;;1.77;0.50;;;;;;;26.26;28.58;96736.84;4935022;28;20039;-28
2022/04/10 03:43:39;;;;;;;2.25;0.50;;;;;;;26.27;28.78;96745.56;4932906;28;20034;-29
2022/04/10 03:46:05;;;;;;;1.63;0.50;;;;;;;26.26;28.76;96742.09;4931199;28;20507;-30
2022/04/10 03:48:30;;;;;;;1.70;0.60;;;;;;;26.23;28.75;96742.22;4931422;28;20028;-29
2022/04/10 03:50:55;;;;;;;1.67;0.60;;;;;;;26.26;28.65;96747.34;4933075;28;20035;-28
2022/04/10 03:53:21;;;;;;;1.13;0.60;;;;;;;26.25;28.74;96745.63;4932569;28;20036;-32
2022/04/10 03:55:47;;;;;;;3.05;0.60;;;;;;;26.25;28.65;96761.38;4931107;28;20038;-32
2022/04/10 03:58:13;;;;;;;2.80;0.60;;;;;;;26.25;28.78;96755.25;4933530;28;20043;-29
2022/04/10 04:00:38;;;;;;;0.93;0.60;;;;;;;26.24;28.64;96759.69;4934632;28;20434;-29
2022/04/10 04:03:04;;;;;;;1.23;0.63;;;;;;;26.24;28.77;96762.31;4934887;28;20059;-29
2022/04/10 04:05:29;;;;;;;1.60;0.52;;;;;;;26.23;28.65;96761.47;4929355;28;20027;-30
2022/04/10 04:07:55;;;;;;;2.38;0.60;;;;;;;26.23;28.67;96764.09;4926234;28;20039;-29
2022/04/10 04:10:21;;;;;;;1.45;0.52;;;;;;;26.24;28.62;96764.94;4929653;28;20019;-32
2022/04/10 04:12:46;;;;;;;1.10;0.80;;;;;;;26.24;28.66;96762.31;4931206;28;20041;-31
2022/04/10 04:15:11;;;;;;;1.38;0.73;;;;;;;26.23;28.68;96771.09;4929218;28;20047;-34
2022/04/10 04:17:40;;;;;;;1.95;0.77;;;;;;;26.22;28.78;96766.78;4943245;28;20031;-30
2022/04/10 04:20:06;;;;;;;2.38;0.60;;;;;;;26.22;28.64;96772.91;4924285;28;20130;-30
2022/04/10 04:22:32;;;;;;;0.80;0.50;;;;;;;26.23;28.72;96781.63;4935212;28;20035;-31
2022/04/10 04:24:57;;;;;;;1.40;0.40;;;;;;;26.23;28.75;96784.25;4934153;28;20034;-30
2022/04/10 04:27:22;;;;;;;0.73;0.38;;;;;;;26.22;28.73;96787.81;4931177;28;20019;-28
2022/04/10 04:29:48;;;;;;;1.27;0.60;;;;;;;26.21;28.78;96786.94;4930428;28;20035;-30
2022/04/10 04:32:13;;;;;;;1.48;0.50;;;;;;;26.22;28.71;96790.44;4945322;28;20070;-30
2022/04/10 04:34:39;;;;;;;0.40;0.30;;;;;;;26.22;28.78;96798.31;4927897;28;20030;-30
2022/04/10 04:37:04;;;;;;;1.35;0.50;;;;;;;26.21;28.69;96791.38;4931606;28;20046;-29
2022/04/10 04:39:30;;;;;;;1.02;0.40;;;;;;;26.21;28.68;96797.44;4928676;28;20027;-30
2022/04/10 04:41:55;;;;;;;2.70;0.40;;;;;;;26.20;28.59;96801.03;4930083;28;20178;-32
2022/04/10 04:44:21;;;;;;;1.20;0.43;;;;;;;26.22;28.49;96803.56;4929892;28;20028;-30
2022/04/10 04:46:46;;;;;;;0.73;0.52;;;;;;;26.21;28.67;96807.13;4928759;28;20060;-28
2022/04/10 04:49:12;;;;;;;0.68;0.32;;;;;;;26.19;28.68;96804.59;4929714;28;20032;-29
2022/04/10 04:51:37;;;;;;;3.80;0.73;;;;;;;26.19;28.70;96798.47;4922747;28;20027;-29
2022/04/10 04:54:03;;;;;;;1.08;0.40;;;;;;;26.19;28.71;96803.72;4925529;28;20085;-30
2022/04/10 04:56:29;;;;;;;1.33;0.50;;;;;;;26.19;28.85;96807.22;4930340;28;20032;-30
2022/04/10 04:58:54;;;;;;;0.55;0.40;;;;;;;26.18;28.72;96813.41;4931228;28;20556;-30
2022/04/10 05:01:20;;;;;;;3.22;0.60;;;;;;;26.18;28.60;96815.16;4934645;28;20383;-30
2022/04/10 05:03:45;;;;;;;0.30;0.30;;;;;;;26.18;28.68;96817.78;4935512;28;20027;-29
2022/04/10 05:06:11;;;;;;;0.50;0.50;;;;;;;26.17;28.64;96819.59;4933345;28;20490;-30
2022/04/10 05:08:36;;;;;;;2.15;0.40;;;;;;;26.19;28.78;96822.13;4946572;28;20157;-29
2022/04/10 05:11:01;;;;;;;1.48;0.50;;;;;;;26.18;28.70;96823.06;4932033;28;20035;-31
2022/04/10 05:13:27;;;;;;;3.35;0.75;;;;;;;26.18;28.83;96838.81;4930033;28;20035;-30
2022/04/10 05:15:53;;;;;;;2.58;0.65;;;;;;;26.17;28.67;96837.97;4934638;28;20070;-29
2022/04/10 05:18:19;;;;;;;1.55;0.47;;;;;;;26.17;28.75;96842.38;4933382;28;20043;-30
2022/04/10 05:20:45;;;;;;;0.93;0.47;;;;;;;26.16;28.74;96841.50;4930118;28;20056;-30
2022/04/10 05:23:11;;;;;;;0.93;0.60;;;;;;;26.17;28.78;96853.75;4935541;28;20027;-29
2022/04/10 05:25:37;;;;;;;1.27;0.60;;;;;;;26.17;28.71;96850.25;4934417;28;20796;-30
2022/04/10 05:28:03;;;;;;;1.45;0.50;;;;;;;26.16;28.70;96859.06;4935845;28;20956;-30
2022/04/10 05:30:28;;;;;;;1.50;0.57;;;;;;;26.16;28.72;96861.69;4947338;28;20031;-31
2022/04/10 05:32:54;;;;;;;0.70;0.50;;;;;;;26.17;28.74;96863.38;4934742;28;20019;-32
2022/04/10 05:35:19;;;;;;;0.80;0.40;;;;;;;26.15;28.77;96860.84;4949771;28;20019;-30
2022/04/10 05:37:44;;;;;;;1.67;0.65;;;;;;;26.17;28.76;96858.13;4933827;28;20027;-31
2022/04/10 05:40:10;;;;;;;1.92;0.60;;;;;;;26.16;28.80;96865.16;4931585;28;20089;-29
2022/04/10 05:42:43;;;;;;;1.48;0.65;;;;;;;26.15;28.58;96871.34;4935247;28;20034;-30
2022/04/10 05:45:09;;;;;;;1.50;0.63;;;;;;;26.16;28.68;96866.94;4933524;28;20644;-31
2022/04/10 05:47:36;;;;;;;0.85;0.43;;;;;;;26.16;28.87;96874.81;4934233;28;20051;-31
2022/04/10 05:50:02;;;;;;;1.05;0.52;;;;;;;26.15;28.81;96886.25;4934036;28;20379;-32
2022/04/10 05:52:28;;;;;;;3.60;0.50;;;;;;;26.16;28.75;96885.34;4933238;28;20031;-31
2022/04/10 05:54:57;;;;;;;0.93;0.60;;;;;;;26.15;28.67;96881.00;4933873;28;20039;-31
2022/04/10 05:57:22;;;;;;;1.40;0.60;;;;;;;26.14;28.78;96882.78;4932805;28;20035;-34
2022/04/10 05:59:48;;;;;;;1.35;0.40;;;;;;;26.15;28.73;96886.25;4936384;28;20094;-33
2022/04/10 06:02:13;;;;;;;0.75;0.60;;;;;;;26.14;28.67;96884.56;4932369;28;20047;-29
2022/04/10 06:04:39;;;;;;;7.97;1.80;;;;;;;26.14;28.77;96887.19;4933354;28;20027;-30
2022/04/10 06:07:04;;;;;;;2.80;0.90;;;;;;;26.14;28.78;96890.66;4933830;28;20038;-31
2022/04/10 06:09:30;;;;;;;6.28;0.88;;;;;;;26.13;28.83;96888.97;4932947;28;20430;-29
2022/04/10 06:11:55;;;;;;;3.80;0.93;;;;;;;26.14;28.81;96884.56;4928904;28;20618;-29
2022/04/10 06:14:20;;;;;;;3.33;1.20;;;;;;;26.14;28.71;96884.56;4934252;28;20662;-28
2022/04/10 06:16:48;;;;;;;3.17;0.80;;;;;;;26.14;28.76;96900.31;4929678;28;20038;-31
2022/04/10 06:19:16;;;;;;;1.80;0.80;;;;;;;26.13;28.79;96894.22;4933524;28;20039;-30
2022/04/10 06:21:41;;;;;;;2.47;0.63;;;;;;;26.14;28.55;96900.31;4931559;28;20043;-29
2022/04/10 06:24:07;;;;;;;2.47;0.80;;;;;;;26.13;28.66;96896.00;4930245;28;20074;-30
2022/04/10 06:26:32;;;;;;;3.00;0.80;;;;;;;26.14;28.45;96902.94;4924515;28;20034;-31
2022/04/10 06:28:58;;;;;;;3.55;1.25;;;;;;;26.14;28.55;96905.56;4930572;28;20042;-30
2022/04/10 06:31:23;;;;;;;7.60;1.42;;;;;;;26.14;28.72;96911.69;4930019;28;23755;-30
2022/04/10 06:33:50;;;;;;;16.27;2.20;;;;;;;26.13;28.54;96910.00;4921468;28;20043;-32
2022/04/10 06:36:16;;;;;;;9.40;2.58;;;;;;;26.13;28.56;96904.75;4924927;28;20028;-31
2022/04/10 06:38:41;;;;;;;14.73;2.25;;;;;;;26.12;28.53;96907.44;4929592;28;20042;-31
2022/04/10 06:41:07;;;;;;;7.68;1.90;;;;;;;26.13;28.65;96904.75;4929599;28;20036;-31
2022/04/10 06:43:32;;;;;;;8.50;2.47;;;;;;;26.12;28.51;96913.53;4929166;28;20031;-33
2022/04/10 06:45:57;;;;;;;10.18;1.88;;;;;;;26.13;28.58;96909.13;4927299;28;20371;-29
2022/04/10 06:48:23;;;;;;;8.38;1.85;;;;;;;26.13;28.50;96906.50;4927542;28;20031;-33
2022/04/10 06:50:49;;;;;;;5.63;2.10;;;;;;;26.14;28.56;96921.31;4931618;28;20039;-29
2022/04/10 06:53:15;;;;;;;7.72;1.80;;;;;;;26.13;28.67;96917.00;4929835;28;20032;-30
2022/04/10 06:55:40;;;;;;;11.30;2.65;;;;;;;26.14;28.52;96911.69;4929484;28;20023;-31
2022/04/10 06:58:05;;;;;;;11.02;2.40;;;;;;;26.14;28.54;96906.44;4929044;28;20493;-29
2022/04/10 07:00:32;;;;;;;6.57;2.30;;;;;;;26.14;28.59;96916.06;4940369;28;20130;-30
2022/04/10 07:03:01;;;;;;;6.97;1.80;;;;;;;26.15;28.51;96917.75;4926983;28;20063;-30
2022/04/10 07:05:26;;;;;;;7.00;2.10;;;;;;;26.15;28.38;96917.75;4926854;28;20055;-31
2022/04/10 07:07:52;;;;;;;4.65;2.10;;;;;;;26.16;28.53;96924.72;4925548;28;20391;-32
2022/04/10 07:10:17;;;;;;;6.80;2.13;;;;;;;26.15;28.48;96928.25;4925826;28;20526;-32
2022/04/10 07:12:43;;;;;;;8.07;2.15;;;;;;;26.14;28.47;96921.31;4927487;28;20031;-31
2022/04/10 07:15:08;;;;;;;8.90;2.00;;;;;;;26.15;28.39;96921.25;4925567;28;20035;-32
2022/04/10 07:17:33;;;;;;;7.32;1.90;;;;;;;26.15;28.43;96923.00;4930936;28;20039;-30
2022/04/10 07:19:59;;;;;;;5.03;1.90;;;;;;;26.16;28.60;96930.00;4930710;28;20692;-28
2022/04/10 07:25:08;;;;;;;8.93;2.28;;;;;;;26.13;28.58;96924.88;4930374;28;20383;-32
2022/04/10 07:27:34;;;;;;;21.05;2.28;;;;;;;26.16;28.60;96920.31;4929503;28;20502;-30
2022/04/10 07:29:59;;;;;;;4.38;1.88;;;;;;;26.18;28.61;96922.84;4927624;28;20043;-35
2022/04/10 07:32:25;;;;;;;8.63;1.90;;;;;;;26.18;28.51;96922.84;4928494;28;20035;-31
2022/04/10 07:34:50;;;;;;;7.07;2.00;;;;;;;26.19;28.47;96929.81;4926598;28;20031;-31
2022/04/10 07:37:15;;;;;;;5.20;1.90;;;;;;;26.21;28.43;96933.22;4930442;28;20042;-30
2022/04/10 07:39:41;;;;;;;6.30;2.35;;;;;;;26.20;28.65;96934.97;4927167;28;20591;-30
2022/04/10 07:42:08;;;;;;;6.57;2.35;;;;;;;26.22;28.48;96929.66;4927840;28;20031;-33
2022/04/10 07:44:33;;;;;;;5.55;1.77;;;;;;;26.23;28.42;96933.97;4925637;28;21646;-29
2022/04/10 07:49:43;;;;;;;6.97;2.03;;;;;;;26.26;28.47;96944.34;4929283;28;20114;-30
2022/04/10 07:52:08;;;;;;;6.72;1.85;;;;;;;26.27;28.43;96937.34;4922720;28;20023;-30
2022/04/10 07:54:34;;;;;;;5.00;1.98;;;;;;;26.29;28.39;96940.72;4926004;28;20027;-30
2022/04/10 07:56:59;;;;;;;6.38;2.08;;;;;;;26.30;28.59;96945.91;4926802;28;20070;-30
2022/04/10 07:59:24;;;;;;;6.93;2.15;;;;;;;26.32;28.71;96951.06;4927256;28;20039;-31
2022/04/10 08:01:50;;;;;;;4.18;1.90;;;;;;;26.33;28.71;96947.50;4923684;28;20032;-30
2022/04/10 08:04:15;;;;;;;8.02;1.85;;;;;;;26.35;28.67;96943.88;4927503;28;20051;-35
2022/04/10 08:06:41;;;;;;;17.10;2.08;;;;;;;26.38;28.57;96944.66;4928691;28;20028;-32
2022/04/10 08:09:06;;;;;;;4.88;2.00;;;;;;;26.38;28.66;96948.09;4923597;28;20078;-31
2022/04/10 08:11:32;;;;;;;7.57;2.10;;;;;;;26.39;28.40;96957.69;4927146;28;20319;-30
2022/04/10 08:13:57;;;;;;;9.70;2.13;;;;;;;26.43;28.43;96953.13;4924817;28;20019;-34
2022/04/10 08:16:22;;;;;;;11.68;2.30;;;;;;;26.43;28.62;96947.88;4925027;28;20042;-29
2022/04/10 08:18:48;;;;;;;12.60;2.17;;;;;;;26.46;28.58;96958.19;4928131;28;20119;-33
2022/04/10 08:21:13;;;;;;;21.75;2.35;;;;;;;26.47;28.62;96954.66;4922839;28;20905;-35
2022/04/10 08:23:39;;;;;;;6.25;1.73;;;;;;;26.50;28.47;96958.91;4923007;28;20027;-29
2022/04/10 08:26:04;;;;;;;10.55;2.08;;;;;;;26.51;28.64;96958.81;4941717;28;20027;-30
2022/04/10 08:28:31;;;;;;;12.20;2.15;;;;;;;26.53;28.61;96956.94;4925168;28;20050;-32
2022/04/10 08:30:57;;;;;;;6.35;2.10;;;;;;;26.56;28.45;96958.56;4921873;28;20031;-31
2022/04/10 08:33:22;;;;;;;14.65;1.83;;;;;;;26.55;27.88;96962.97;4925678;28;20031;-30
2022/04/10 08:35:48;;;;;;;11.85;2.00;;;;;;;26.56;27.68;96975.19;4924907;28;20100;-32
2022/04/10 08:38:13;;;;;;;4.82;1.77;;;;;;;26.55;27.64;96973.47;4927600;28;20670;-30
2022/04/10 08:40:39;;;;;;;9.48;2.00;;;;;;;26.55;27.48;96975.28;4927791;28;20030;-31
2022/04/10 08:43:05;;;;;;;7.40;1.80;;;;;;;26.54;27.57;96971.78;4929620;28;20027;-30
2022/04/10 08:45:30;;;;;;;6.22;1.58;;;;;;;26.55;27.55;96970.00;4931262;28;20890;-31
2022/04/10 08:47:56;;;;;;;10.90;1.58;;;;;;;26.55;27.39;96972.66;4924444;28;20136;-30
2022/04/10 08:50:23;;;;;;;4.03;1.45;;;;;;;26.55;27.75;96984.00;4932332;28;20394;-30
2022/04/10 08:52:50;;;;;;;6.45;1.67;;;;;;;26.56;27.51;96975.19;4925566;28;20612;-30
2022/04/10 08:55:16;;;;;;;8.60;1.88;;;;;;;26.56;27.52;96985.72;4932351;28;20873;-30
2022/04/10 08:57:41;;;;;;;11.80;1.77;;;;;;;26.57;27.48;96987.41;4923352;28;20035;-29
2022/04/10 09:00:07;;;;;;;10.30;1.75;;;;;;;26.58;27.64;96983.84;4923792;28;20111;-30
2022/04/10 09:02:47;;;;;;;6.50;1.50;;;;;;;26.59;27.70;96993.41;4922917;28;20083;-32
2022/04/10 09:05:22;;;;;;;5.30;2.05;;;;;;;26.58;27.25;96996.97;4940769;28;20031;-32
2022/04/10 09:08:10;;;;;;;4.30;2.20;;;;;;;26.48;24.29;96993.16;4919496;28;20123;-27
2022/04/10 09:10:56;;;;;;;6.65;2.83;;;;;;;26.27;22.79;96980.19;4919774;28;20032;-33
2022/04/10 09:13:36;;;;;;;4.57;2.53;;;;;;;26.07;22.15;96989.94;4921461;28;20069;-31
2022/04/10 09:16:04;;;;;;;6.22;2.63;;;;;;;25.81;21.12;96989.47;4919803;28;20048;-32
2022/04/10 09:18:32;;;;;;;5.47;2.38;;;;;;;25.55;20.82;96983.72;4921109;28;20027;-28
2022/04/10 09:21:07;;;;;;;4.95;2.35;;;;;;;25.30;20.80;96982.28;4921404;28;20054;-29
2022/04/10 09:23:32;;;;;;;5.90;2.03;;;;;;;25.16;21.32;96971.59;4936920;28;20035;-28
2022/04/10 09:25:58;;;;;;;5.40;1.77;;;;;;;25.05;21.65;96986.06;4930039;28;20051;-27
2022/04/10 09:28:40;;;;;;;8.23;1.77;;;;;;;25.01;22.08;96989.75;4927217;28;20517;-30
2022/04/10 09:31:23;;;;;;;;;;;;;;;24.99;22.24;96990.75;4925560;28;20031;-34
2022/04/10 09:33:54;;;;;;;7.15;1.83;;;;;;;25.02;22.78;96983.59;4923544;28;19926;-29
2022/04/10 09:36:45;;;;;;;9.60;1.85;;;;;;;25.05;22.74;96980.84;4925759;28;20035;-29
2022/04/10 09:39:13;;;;;;;5.32;1.80;;;;;;;25.09;23.03;96976.28;4915840;28;20042;-30
2022/04/10 09:41:40;;;;;;;4.93;1.48;;;;;;;25.14;23.12;96978.69;4915708;28;20061;-30
2022/04/10 09:44:20;;;;;;;5.40;1.70;;;;;;;25.20;23.33;96977.56;4915313;28;20027;-29
2022/04/10 09:46:56;;;;;;;9.32;1.70;;;;;;;25.26;23.54;96980.75;4920083;28;20120;-31
2022/04/10 09:49:22;;;;;;;8.77;1.67;;;;;;;25.31;23.65;96978.75;4931880;28;20031;-28
2022/04/10 09:52:10;;;;;;;6.95;1.50;;;;;;;25.40;23.94;96981.84;4925122;28;20641;-36
2022/04/10 09:54:38;;;;;;;7.05;1.50;;;;;;;25.46;23.80;96989.41;4923709;28;20093;-31
2022/04/10 09:57:05;;;;;;;12.60;1.98;;;;;;;25.52;23.97;97007.47;4930034;28;20031;-30
2022/04/10 09:59:43;;;;;;;7.00;2.30;;;;;;;25.57;24.06;97023.91;4922863;28;20094;-30
2022/04/10 10:02:09;;;;;;;7.18;2.60;;;;;;;25.63;24.09;97040.25;4923156;28;20024;-30
2022/04/10 10:04:35;;;;;;;15.40;2.92;;;;;;;25.68;24.16;97051.38;4923479;28;20031;-35
2022/04/10 10:07:15;;;;;;;8.70;3.30;;;;;;;25.71;24.35;97072.25;4921960;28;20102;-32
2022/04/10 10:09:41;;;;;;;12.90;2.95;;;;;;;25.75;24.33;97076.41;4922197;28;20031;-28
2022/04/10 10:12:07;;;;;;;6.28;2.08;;;;;;;25.77;24.30;97066.69;4925571;28;21666;-33
2022/04/10 10:14:33;;;;;;;11.75;3.03;;;;;;;25.79;24.40;97059.59;4923665;28;20063;-33
2022/04/10 10:16:59;;;;;;;10.13;3.67;;;;;;;25.83;24.68;97044.53;4921071;28;20162;-30
2022/04/10 10:19:25;;;;;;;13.43;3.20;;;;;;;25.85;24.77;97039.22;4918000;28;20138;-31
2022/04/10 10:21:51;;;;;;;9.75;3.33;;;;;;;25.88;24.68;97026.78;4921586;28;20893;-30
2022/04/10 10:24:17;;;;;;;14.95;3.70;;;;;;;25.91;24.84;97023.13;4919851;28;20106;-32
2022/04/10 10:26:54;;;;;;;13.52;2.80;;;;;;;25.94;24.88;97020.38;4941437;28;20034;-32
2022/04/10 10:29:50;;;;;;;17.88;3.70;;;;;;;25.96;25.31;97019.38;4921557;28;20150;-30
2022/04/10 10:32:44;;;;;;;14.30;3.40;;;;;;;26.00;25.42;97014.81;4924769;28;20051;-33
2022/04/10 10:35:11;;;;;;;13.73;3.60;;;;;;;26.01;25.47;97011.25;4929677;28;20113;-31
2022/04/10 10:37:51;;;;;;;11.98;3.50;;;;;;;26.04;25.40;97011.09;4929645;28;20087;-32
2022/04/10 10:40:18;;;;;;;13.50;3.28;;;;;;;26.05;25.40;97002.28;4940338;28;20553;-32
2022/04/10 10:42:45;;;;;;;14.15;3.13;;;;;;;26.06;25.38;96993.50;4928719;28;20182;-30
2022/04/10 10:45:10;;;;;;;12.43;3.15;;;;;;;26.08;25.57;96991.63;4930715;28;20522;-31
2022/04/10 10:47:36;;;;;;;19.48;3.45;;;;;;;26.12;25.45;96996.72;4929323;28;20039;-30
2022/04/10 10:50:01;;;;;;;12.00;2.67;;;;;;;26.13;25.56;96990.53;4932738;28;20094;-33
2022/04/10 10:52:27;;;;;;;12.30;3.15;;;;;;;26.16;25.77;96982.53;4937717;28;20036;-35
2022/04/10 10:54:53;;;;;;;18.15;3.42;;;;;;;26.19;26.23;96975.31;4926893;28;20035;-38
2022/04/10 10:57:28;;;;;;;7.30;3.00;;;;;;;26.18;26.75;96978.88;4921391;28;20035;-31
2022/04/10 11:00:08;;;;;;;8.70;2.97;;;;;;;26.18;27.76;96978.88;4941110;28;20038;-32
2022/04/10 11:02:37;;;;;;;12.40;2.95;;;;;;;26.18;27.76;96978.88;4915273;28;20498;-31
2022/04/10 11:05:24;;;;;;;9.52;3.00;;;;;;;26.24;27.22;96967.22;4930375;28;20035;-30
2022/04/10 11:08:07;;;;;;;6.80;2.70;;;;;;;26.30;26.22;96964.28;4917516;28;20034;-31
2022/04/10 11:10:55;;;;;;;10.32;3.05;;;;;;;26.41;26.39;96970.75;4918443;28;20059;-34
2022/04/10 11:13:21;;;;;;;11.25;2.72;;;;;;;26.51;26.64;96998.25;4914146;28;20526;-30
2022/04/10 11:15:47;;;;;;;10.57;3.00;;;;;;;26.59;26.83;96989.94;4913627;28;20102;-32
2022/04/10 11:18:29;;;;;;;12.10;2.97;;;;;;;26.71;26.72;96983.19;4923828;28;20053;-31
2022/04/10 11:20:55;;;;;;;6.32;2.58;;;;;;;26.80;26.70;96972.16;4921235;28;20030;-29
2022/04/10 11:23:21;;;;;;;10.15;2.97;;;;;;;26.87;26.68;96972.69;4914940;28;20035;-32
2022/04/10 11:25:52;;;;;;;8.32;2.85;;;;;;;26.94;26.63;96973.19;4940522;28;20034;-34
2022/04/10 11:28:17;;;;;;;16.25;4.22;;;;;;;27.01;26.88;96982.47;4920885;28;20074;-30
2022/04/10 11:30:45;;;;;;;9.75;2.65;;;;;;;27.06;26.79;96983.06;4923689;28;20544;-30
2022/04/10 11:33:11;;;;;;;17.70;3.72;;;;;;;27.10;24.50;96975.84;4920765;28;20059;-32
2022/04/10 11:35:38;;;;;;;7.28;2.80;;;;;;;27.11;22.93;96967.00;4917130;28;20618;-32
2022/04/10 11:38:15;;;;;;;17.60;2.58;;;;;;;27.07;22.25;96963.72;4923640;28;20040;-33
2022/04/10 11:40:42;;;;;;;19.55;3.72;;;;;;;27.03;21.49;96970.06;4921501;28;20031;-31